sensor_id;sensor_type;location;lat;lon;timestamp;temperature;humidity
35894;DHT22;21994;48.204;16.516;2022-12-18T00:00:42;-2.00;99.90
35894;DHT22;21994;48.204;16.516;2022-12-18T00:03:08;-2.10;99.90
35894;DHT22;21994;48.204;16.516;2022-12-18T00:05:34;-2.10;99.90
35894;DHT22;21994;48.204;16.516;2022-12-18T00:08:00;-2.20;99.90
35894;DHT22;21994;48.204;16.516;2022-12-18T00:10:27;-2.20;99.90
35894;DHT22;21994;48.204;16.516;2022-12-18T00:12:52;-2.30;99.90
35894;DHT22;21994;48.204;16.516;2022-12-18T00:15:18;-2.30;99.90
35894;DHT22;21994;48.204;16.516;2022-12-18T00:17:44;-2.40;99.90
35894;DHT22;21994;48.204;16.516;2022-12-18T00:20:10;-2.50;99.90
35894;DHT22;21994;48.204;16.516;2022-12-18T00:22:36;-2.50;99.90
35894;DHT22;21994;48.204;16.516;2022-12-18T00:25:01;-2.60;99.90
35894;DHT22;21994;48.204;16.516;2022-12-18T00:27:27;-2.50;99.90
35894;DHT22;21994;48.204;16.516;2022-12-18T00:29:53;-2.50;99.90
35894;DHT22;21994;48.204;16.516;2022-12-18T00:32:19;-2.60;99.90
35894;DHT22;21994;48.204;16.516;2022-12-18T00:34:44;-2.60;99.90
35894;DHT22;21994;48.204;16.516;2022-12-18T00:37:10;-2.60;99.90
35894;DHT22;21994;48.204;16.516;2022-12-18T00:39:36;-2.70;99.90
35894;DHT22;21994;48.204;16.516;2022-12-18T00:42:02;-2.80;99.90
35894;DHT22;21994;48.204;16.516;2022-12-18T00:44:46;-2.80;99.90
35894;DHT22;21994;48.204;16.516;2022-12-18T00:47:12;-2.80;99.90
35894;DHT22;21994;48.204;16.516;2022-12-18T00:49:37;-2.90;99.90
35894;DHT22;21994;48.204;16.516;2022-12-18T00:52:03;-3.00;99.90
35894;DHT22;21994;48.204;16.516;2022-12-18T00:54:29;-3.00;99.90
35894;DHT22;21994;48.204;16.516;2022-12-18T00:56:55;-3.10;99.90
35894;DHT22;21994;48.204;16.516;2022-12-18T00:59:21;-3.10;99.90
35894;DHT22;21994;48.204;16.516;2022-12-18T01:01:47;-3.20;99.90
35894;DHT22;21994;48.204;16.516;2022-12-18T01:04:12;-3.20;99.90
35894;DHT22;21994;48.204;16.516;2022-12-18T01:06:38;-3.20;99.90
35894;DHT22;21994;48.204;16.516;2022-12-18T01:09:05;-3.30;99.90
35894;DHT22;21994;48.204;16.516;2022-12-18T01:11:31;-3.40;99.90
35894;DHT22;21994;48.204;16.516;2022-12-18T01:13:56;-3.40;99.90
35894;DHT22;21994;48.204;16.516;2022-12-18T01:16:22;-3.50;99.90
35894;DHT22;21994;48.204;16.516;2022-12-18T01:18:50;-3.50;99.90
35894;DHT22;21994;48.204;16.516;2022-12-18T01:21:17;-3.50;99.90
35894;DHT22;21994;48.204;16.516;2022-12-18T01:23:42;-3.50;99.90
35894;DHT22;21994;48.204;16.516;2022-12-18T01:26:10;-3.50;99.90
35894;DHT22;21994;48.204;16.516;2022-12-18T01:28:38;-3.40;99.90
35894;DHT22;21994;48.204;16.516;2022-12-18T01:31:15;-3.50;99.90
35894;DHT22;21994;48.204;16.516;2022-12-18T01:33:45;-3.60;99.90
35894;DHT22;21994;48.204;16.516;2022-12-18T01:36:16;-3.60;99.90
35894;DHT22;21994;48.204;16.516;2022-12-18T01:38:44;-3.70;99.90
35894;DHT22;21994;48.204;16.516;2022-12-18T01:41:09;-3.70;99.90
35894;DHT22;21994;48.204;16.516;2022-12-18T01:43:43;-3.70;99.90
35894;DHT22;21994;48.204;16.516;2022-12-18T01:46:27;-3.70;99.90
35894;DHT22;21994;48.204;16.516;2022-12-18T01:48:57;-3.80;99.90
35894;DHT22;21994;48.204;16.516;2022-12-18T01:51:23;-3.80;99.90
35894;DHT22;21994;48.204;16.516;2022-12-18T01:53:49;-3.90;99.90
35894;DHT22;21994;48.204;16.516;2022-12-18T01:56:16;-4.00;99.90
35894;DHT22;21994;48.204;16.516;2022-12-18T01:58:56;-4.00;99.90
35894;DHT22;21994;48.204;16.516;2022-12-18T02:01:26;-4.00;99.90
35894;DHT22;21994;48.204;16.516;2022-12-18T02:03:52;-4.00;99.90
35894;DHT22;21994;48.204;16.516;2022-12-18T02:09:02;-4.10;99.90
35894;DHT22;21994;48.204;16.516;2022-12-18T02:11:53;-4.10;99.90
35894;DHT22;21994;48.204;16.516;2022-12-18T02:14:41;-4.20;99.90
35894;DHT22;21994;48.204;16.516;2022-12-18T02:17:13;-4.30;99.90
35894;DHT22;21994;48.204;16.516;2022-12-18T02:25:38;-4.40;99.90
35894;DHT22;21994;48.204;16.516;2022-12-18T02:28:06;-4.40;99.90
35894;DHT22;21994;48.204;16.516;2022-12-18T02:30:35;-4.50;99.90
35894;DHT22;21994;48.204;16.516;2022-12-18T02:33:02;-4.50;99.90
35894;DHT22;21994;48.204;16.516;2022-12-18T02:35:30;-4.50;99.90
35894;DHT22;21994;48.204;16.516;2022-12-18T02:37:56;-4.60;99.90
35894;DHT22;21994;48.204;16.516;2022-12-18T02:40:23;-4.60;99.90
35894;DHT22;21994;48.204;16.516;2022-12-18T02:42:50;-4.70;99.90
35894;DHT22;21994;48.204;16.516;2022-12-18T02:45:16;-4.70;99.90
35894;DHT22;21994;48.204;16.516;2022-12-18T02:47:42;-4.70;99.90
35894;DHT22;21994;48.204;16.516;2022-12-18T02:50:15;-4.70;99.90
35894;DHT22;21994;48.204;16.516;2022-12-18T02:52:56;-4.70;99.90
35894;DHT22;21994;48.204;16.516;2022-12-18T03:01:16;-4.70;99.90
35894;DHT22;21994;48.204;16.516;2022-12-18T03:03:47;-4.70;99.90
35894;DHT22;21994;48.204;16.516;2022-12-18T03:06:21;-4.70;99.90
35894;DHT22;21994;48.204;16.516;2022-12-18T03:08:52;-4.70;99.90
35894;DHT22;21994;48.204;16.516;2022-12-18T03:11:22;-4.70;99.90
35894;DHT22;21994;48.204;16.516;2022-12-18T03:14:09;-4.70;99.90
35894;DHT22;21994;48.204;16.516;2022-12-18T03:16:36;-4.70;99.90
35894;DHT22;21994;48.204;16.516;2022-12-18T03:19:04;-4.70;99.90
35894;DHT22;21994;48.204;16.516;2022-12-18T03:21:43;-4.70;99.90
35894;DHT22;21994;48.204;16.516;2022-12-18T03:24:12;-4.70;99.90
35894;DHT22;21994;48.204;16.516;2022-12-18T03:26:40;-4.70;99.90
35894;DHT22;21994;48.204;16.516;2022-12-18T03:29:07;-4.70;99.90
35894;DHT22;21994;48.204;16.516;2022-12-18T03:31:35;-4.80;99.90
35894;DHT22;21994;48.204;16.516;2022-12-18T03:34:04;-4.80;99.90
35894;DHT22;21994;48.204;16.516;2022-12-18T03:36:31;-4.80;99.90
35894;DHT22;21994;48.204;16.516;2022-12-18T03:38:57;-4.80;99.90
35894;DHT22;21994;48.204;16.516;2022-12-18T03:44:33;-4.90;99.90
35894;DHT22;21994;48.204;16.516;2022-12-18T03:46:56;-4.90;99.90
35894;DHT22;21994;48.204;16.516;2022-12-18T03:49:32;-4.90;99.90
35894;DHT22;21994;48.204;16.516;2022-12-18T03:54:29;-5.00;99.90
35894;DHT22;21994;48.204;16.516;2022-12-18T03:56:58;-5.10;99.90
35894;DHT22;21994;48.204;16.516;2022-12-18T03:59:27;-5.10;99.90
35894;DHT22;21994;48.204;16.516;2022-12-18T04:01:54;-5.10;99.90
35894;DHT22;21994;48.204;16.516;2022-12-18T04:04:20;-5.10;99.90
35894;DHT22;21994;48.204;16.516;2022-12-18T04:06:47;-5.20;99.90
35894;DHT22;21994;48.204;16.516;2022-12-18T04:09:13;-5.20;99.90
35894;DHT22;21994;48.204;16.516;2022-12-18T04:11:40;-5.30;99.90
35894;DHT22;21994;48.204;16.516;2022-12-18T04:14:09;-5.30;99.90
35894;DHT22;21994;48.204;16.516;2022-12-18T04:16:35;-5.30;99.90
35894;DHT22;21994;48.204;16.516;2022-12-18T04:19:01;-5.30;99.90
35894;DHT22;21994;48.204;16.516;2022-12-18T04:21:26;-5.40;99.90
35894;DHT22;21994;48.204;16.516;2022-12-18T04:23:52;-5.40;99.90
35894;DHT22;21994;48.204;16.516;2022-12-18T04:26:18;-5.50;99.90
35894;DHT22;21994;48.204;16.516;2022-12-18T04:28:43;-5.40;99.90
35894;DHT22;21994;48.204;16.516;2022-12-18T04:31:09;-5.40;99.90
35894;DHT22;21994;48.204;16.516;2022-12-18T04:33:35;-5.40;99.90
35894;DHT22;21994;48.204;16.516;2022-12-18T04:36:00;-5.50;99.90
35894;DHT22;21994;48.204;16.516;2022-12-18T04:38:26;-5.50;99.90
35894;DHT22;21994;48.204;16.516;2022-12-18T04:40:52;-5.50;99.90
35894;DHT22;21994;48.204;16.516;2022-12-18T04:43:18;-5.50;99.90
35894;DHT22;21994;48.204;16.516;2022-12-18T04:45:43;-5.50;99.90
35894;DHT22;21994;48.204;16.516;2022-12-18T04:48:09;-5.50;99.90
35894;DHT22;21994;48.204;16.516;2022-12-18T04:50:35;-5.50;99.90
35894;DHT22;21994;48.204;16.516;2022-12-18T04:53:00;-5.60;99.90
35894;DHT22;21994;48.204;16.516;2022-12-18T04:55:26;-5.60;99.90
35894;DHT22;21994;48.204;16.516;2022-12-18T04:57:52;-5.50;99.90
35894;DHT22;21994;48.204;16.516;2022-12-18T05:00:18;-5.50;99.90
35894;DHT22;21994;48.204;16.516;2022-12-18T05:02:44;-5.60;99.90
35894;DHT22;21994;48.204;16.516;2022-12-18T05:05:10;-5.60;99.90
35894;DHT22;21994;48.204;16.516;2022-12-18T05:07:36;-5.60;99.90
35894;DHT22;21994;48.204;16.516;2022-12-18T05:10:02;-5.60;99.90
35894;DHT22;21994;48.204;16.516;2022-12-18T05:12:29;-5.60;99.90
35894;DHT22;21994;48.204;16.516;2022-12-18T05:14:56;-5.60;99.90
35894;DHT22;21994;48.204;16.516;2022-12-18T05:17:21;-5.70;99.90
35894;DHT22;21994;48.204;16.516;2022-12-18T05:19:47;-5.80;99.90
35894;DHT22;21994;48.204;16.516;2022-12-18T05:22:13;-5.80;99.90
35894;DHT22;21994;48.204;16.516;2022-12-18T05:24:39;-5.80;99.90
35894;DHT22;21994;48.204;16.516;2022-12-18T05:27:04;-5.80;99.90
35894;DHT22;21994;48.204;16.516;2022-12-18T05:29:30;-5.90;99.90
35894;DHT22;21994;48.204;16.516;2022-12-18T05:31:56;-5.90;99.90
35894;DHT22;21994;48.204;16.516;2022-12-18T05:34:22;-6.00;99.90
35894;DHT22;21994;48.204;16.516;2022-12-18T05:36:47;-6.00;99.90
35894;DHT22;21994;48.204;16.516;2022-12-18T05:39:13;-6.10;99.90
35894;DHT22;21994;48.204;16.516;2022-12-18T05:41:39;-6.00;99.90
35894;DHT22;21994;48.204;16.516;2022-12-18T05:44:06;-6.10;99.90
35894;DHT22;21994;48.204;16.516;2022-12-18T05:46:32;-6.10;99.90
35894;DHT22;21994;48.204;16.516;2022-12-18T05:49:01;-6.10;99.90
35894;DHT22;21994;48.204;16.516;2022-12-18T05:51:27;-6.20;99.90
35894;DHT22;21994;48.204;16.516;2022-12-18T05:53:53;-6.20;99.90
35894;DHT22;21994;48.204;16.516;2022-12-18T05:56:20;-6.20;99.90
35894;DHT22;21994;48.204;16.516;2022-12-18T05:58:46;-6.20;99.90
35894;DHT22;21994;48.204;16.516;2022-12-18T06:01:14;-6.10;99.90
35894;DHT22;21994;48.204;16.516;2022-12-18T06:03:41;-6.10;99.90
35894;DHT22;21994;48.204;16.516;2022-12-18T06:06:14;-6.20;99.90
35894;DHT22;21994;48.204;16.516;2022-12-18T06:08:40;-6.20;99.90
35894;DHT22;21994;48.204;16.516;2022-12-18T06:11:06;-6.20;99.90
35894;DHT22;21994;48.204;16.516;2022-12-18T06:13:32;-6.30;99.90
35894;DHT22;21994;48.204;16.516;2022-12-18T06:15:58;-6.30;99.90
35894;DHT22;21994;48.204;16.516;2022-12-18T06:18:27;-6.40;99.90
35894;DHT22;21994;48.204;16.516;2022-12-18T06:20:56;-6.40;99.90
35894;DHT22;21994;48.204;16.516;2022-12-18T06:23:22;-6.40;99.90
35894;DHT22;21994;48.204;16.516;2022-12-18T06:25:48;-6.40;99.90
35894;DHT22;21994;48.204;16.516;2022-12-18T06:28:14;-6.40;99.90
35894;DHT22;21994;48.204;16.516;2022-12-18T06:30:39;-6.40;99.90
35894;DHT22;21994;48.204;16.516;2022-12-18T06:33:05;-6.50;99.90
35894;DHT22;21994;48.204;16.516;2022-12-18T06:35:31;-6.50;99.90
35894;DHT22;21994;48.204;16.516;2022-12-18T06:37:58;-6.50;99.90
35894;DHT22;21994;48.204;16.516;2022-12-18T06:40:23;-6.50;99.90
35894;DHT22;21994;48.204;16.516;2022-12-18T06:42:49;-6.60;99.90
35894;DHT22;21994;48.204;16.516;2022-12-18T06:45:15;-6.50;99.90
35894;DHT22;21994;48.204;16.516;2022-12-18T06:47:40;-6.50;99.90
35894;DHT22;21994;48.204;16.516;2022-12-18T06:50:06;-6.50;99.90
35894;DHT22;21994;48.204;16.516;2022-12-18T06:52:33;-6.50;99.90
35894;DHT22;21994;48.204;16.516;2022-12-18T06:54:59;-6.50;99.90
35894;DHT22;21994;48.204;16.516;2022-12-18T06:57:24;-6.50;99.90
35894;DHT22;21994;48.204;16.516;2022-12-18T06:59:50;-6.50;99.90
35894;DHT22;21994;48.204;16.516;2022-12-18T07:02:16;-6.30;99.90
35894;DHT22;21994;48.204;16.516;2022-12-18T07:04:42;-6.40;99.90
35894;DHT22;21994;48.204;16.516;2022-12-18T07:07:08;-6.40;99.90
35894;DHT22;21994;48.204;16.516;2022-12-18T07:09:34;-6.30;99.90
35894;DHT22;21994;48.204;16.516;2022-12-18T07:11:59;-6.30;99.90
35894;DHT22;21994;48.204;16.516;2022-12-18T07:14:25;-6.20;99.90
35894;DHT22;21994;48.204;16.516;2022-12-18T07:16:51;-6.10;99.90
35894;DHT22;21994;48.204;16.516;2022-12-18T07:19:17;-6.10;99.90
35894;DHT22;21994;48.204;16.516;2022-12-18T07:21:42;-6.10;99.90
35894;DHT22;21994;48.204;16.516;2022-12-18T07:24:08;-6.00;99.90
35894;DHT22;21994;48.204;16.516;2022-12-18T07:26:34;-5.90;99.90
35894;DHT22;21994;48.204;16.516;2022-12-18T07:28:59;-5.80;99.90
35894;DHT22;21994;48.204;16.516;2022-12-18T07:31:25;-5.80;99.90
35894;DHT22;21994;48.204;16.516;2022-12-18T07:33:51;-5.80;99.90
35894;DHT22;21994;48.204;16.516;2022-12-18T07:36:17;-5.70;99.90
35894;DHT22;21994;48.204;16.516;2022-12-18T07:38:46;-5.70;99.90
35894;DHT22;21994;48.204;16.516;2022-12-18T07:41:12;-5.60;99.90
35894;DHT22;21994;48.204;16.516;2022-12-18T07:43:38;-5.40;99.90
35894;DHT22;21994;48.204;16.516;2022-12-18T07:46:05;-5.30;99.90
35894;DHT22;21994;48.204;16.516;2022-12-18T07:48:31;-5.10;99.90
35894;DHT22;21994;48.204;16.516;2022-12-18T07:51:00;-5.00;99.90
35894;DHT22;21994;48.204;16.516;2022-12-18T07:53:27;-4.90;99.90
35894;DHT22;21994;48.204;16.516;2022-12-18T07:55:57;-4.80;99.90
35894;DHT22;21994;48.204;16.516;2022-12-18T07:58:23;-4.70;99.90
35894;DHT22;21994;48.204;16.516;2022-12-18T08:00:49;-4.60;99.90
35894;DHT22;21994;48.204;16.516;2022-12-18T08:03:15;-4.50;99.90
35894;DHT22;21994;48.204;16.516;2022-12-18T08:05:41;-4.40;99.90
35894;DHT22;21994;48.204;16.516;2022-12-18T08:08:07;-4.30;99.90
35894;DHT22;21994;48.204;16.516;2022-12-18T08:10:32;-4.20;99.90
35894;DHT22;21994;48.204;16.516;2022-12-18T08:12:58;-4.20;99.90
35894;DHT22;21994;48.204;16.516;2022-12-18T08:15:24;-4.10;99.90
35894;DHT22;21994;48.204;16.516;2022-12-18T08:17:49;-4.00;99.90
35894;DHT22;21994;48.204;16.516;2022-12-18T08:20:15;-3.90;99.90
35894;DHT22;21994;48.204;16.516;2022-12-18T08:22:41;-3.80;99.90
35894;DHT22;21994;48.204;16.516;2022-12-18T08:25:07;-3.70;99.90
35894;DHT22;21994;48.204;16.516;2022-12-18T08:27:34;-3.70;99.90
35894;DHT22;21994;48.204;16.516;2022-12-18T08:29:59;-3.60;99.90
35894;DHT22;21994;48.204;16.516;2022-12-18T08:32:25;-3.50;99.90
35894;DHT22;21994;48.204;16.516;2022-12-18T08:34:52;-3.40;99.90
35894;DHT22;21994;48.204;16.516;2022-12-18T08:37:17;-3.30;99.90
35894;DHT22;21994;48.204;16.516;2022-12-18T08:39:43;-3.30;99.90
35894;DHT22;21994;48.204;16.516;2022-12-18T08:42:09;-3.10;99.90
35894;DHT22;21994;48.204;16.516;2022-12-18T08:44:53;-2.80;99.90
35894;DHT22;21994;48.204;16.516;2022-12-18T08:47:19;-2.80;99.90
35894;DHT22;21994;48.204;16.516;2022-12-18T08:49:45;-2.70;99.90
35894;DHT22;21994;48.204;16.516;2022-12-18T08:52:11;-2.70;99.90
35894;DHT22;21994;48.204;16.516;2022-12-18T08:54:36;-2.70;99.90
35894;DHT22;21994;48.204;16.516;2022-12-18T08:57:02;-2.50;99.90
35894;DHT22;21994;48.204;16.516;2022-12-18T08:59:28;-2.40;99.90
35894;DHT22;21994;48.204;16.516;2022-12-18T09:01:54;-2.50;99.90
35894;DHT22;21994;48.204;16.516;2022-12-18T09:04:20;-2.20;99.90
35894;DHT22;21994;48.204;16.516;2022-12-18T09:06:46;-2.10;99.90
35894;DHT22;21994;48.204;16.516;2022-12-18T09:09:12;-2.00;99.90
35894;DHT22;21994;48.204;16.516;2022-12-18T09:11:38;-2.10;99.90
35894;DHT22;21994;48.204;16.516;2022-12-18T09:14:06;-1.80;99.90
35894;DHT22;21994;48.204;16.516;2022-12-18T09:16:32;-1.40;99.90
35894;DHT22;21994;48.204;16.516;2022-12-18T09:19:00;-0.50;99.90
35894;DHT22;21994;48.204;16.516;2022-12-18T09:21:31;0.30;99.90
35894;DHT22;21994;48.204;16.516;2022-12-18T09:23:58;0.90;99.90
35894;DHT22;21994;48.204;16.516;2022-12-18T09:26:24;1.60;99.90
35894;DHT22;21994;48.204;16.516;2022-12-18T09:28:51;2.40;99.90
35894;DHT22;21994;48.204;16.516;2022-12-18T09:31:17;2.70;99.90
35894;DHT22;21994;48.204;16.516;2022-12-18T09:33:44;3.10;99.90
35894;DHT22;21994;48.204;16.516;2022-12-18T09:36:14;3.30;99.90
35894;DHT22;21994;48.204;16.516;2022-12-18T09:38:41;3.00;99.90
35894;DHT22;21994;48.204;16.516;2022-12-18T09:44:15;2.50;99.90
35894;DHT22;21994;48.204;16.516;2022-12-18T09:47:37;2.90;99.90
35894;DHT22;21994;48.204;16.516;2022-12-18T09:49:50;3.40;99.90
35894;DHT22;21994;48.204;16.516;2022-12-18T09:52:24;3.20;99.90
35894;DHT22;21994;48.204;16.516;2022-12-18T09:55:03;2.70;99.90
35894;DHT22;21994;48.204;16.516;2022-12-18T09:57:38;2.70;99.90
35894;DHT22;21994;48.204;16.516;2022-12-18T10:00:16;2.80;99.90
35894;DHT22;21994;48.204;16.516;2022-12-18T10:02:44;2.50;99.90
35894;DHT22;21994;48.204;16.516;2022-12-18T10:05:14;2.20;99.90
35894;DHT22;21994;48.204;16.516;2022-12-18T10:10:26;2.20;99.90
35894;DHT22;21994;48.204;16.516;2022-12-18T10:18:36;2.20;99.90
35894;DHT22;21994;48.204;16.516;2022-12-18T10:21:24;2.10;99.90
35894;DHT22;21994;48.204;16.516;2022-12-18T10:24:10;2.20;99.90
35894;DHT22;21994;48.204;16.516;2022-12-18T10:26:40;2.20;99.90
35894;DHT22;21994;48.204;16.516;2022-12-18T10:29:11;2.50;99.90
35894;DHT22;21994;48.204;16.516;2022-12-18T10:31:37;2.30;99.90
35894;DHT22;21994;48.204;16.516;2022-12-18T10:34:03;2.20;99.90
35894;DHT22;21994;48.204;16.516;2022-12-18T10:36:29;1.60;99.90
35894;DHT22;21994;48.204;16.516;2022-12-18T10:39:03;0.90;99.90
35894;DHT22;21994;48.204;16.516;2022-12-18T10:41:40;0.60;99.90
35894;DHT22;21994;48.204;16.516;2022-12-18T10:44:11;0.40;99.90
35894;DHT22;21994;48.204;16.516;2022-12-18T10:46:49;0.30;99.90
35894;DHT22;21994;48.204;16.516;2022-12-18T10:49:21;0.10;99.90
35894;DHT22;21994;48.204;16.516;2022-12-18T10:52:16;-0.10;99.90
35894;DHT22;21994;48.204;16.516;2022-12-18T10:54:47;-0.20;99.90
35894;DHT22;21994;48.204;16.516;2022-12-18T11:02:51;-0.50;99.90
35894;DHT22;21994;48.204;16.516;2022-12-18T11:07:49;-0.40;99.90
35894;DHT22;21994;48.204;16.516;2022-12-18T11:10:25;-0.40;99.90
35894;DHT22;21994;48.204;16.516;2022-12-18T11:12:57;-0.40;99.90
35894;DHT22;21994;48.204;16.516;2022-12-18T11:15:39;-0.30;99.90
35894;DHT22;21994;48.204;16.516;2022-12-18T11:18:14;-0.30;99.90
35894;DHT22;21994;48.204;16.516;2022-12-18T11:20:51;-0.30;99.90
35894;DHT22;21994;48.204;16.516;2022-12-18T11:23:18;-0.30;99.90
35894;DHT22;21994;48.204;16.516;2022-12-18T11:26:01;-0.40;99.90
35894;DHT22;21994;48.204;16.516;2022-12-18T11:28:39;-0.50;99.90
35894;DHT22;21994;48.204;16.516;2022-12-18T11:33:56;-0.50;99.90
35894;DHT22;21994;48.204;16.516;2022-12-18T11:36:46;-0.40;99.90
35894;DHT22;21994;48.204;16.516;2022-12-18T11:39:20;-0.50;99.90
35894;DHT22;21994;48.204;16.516;2022-12-18T11:41:56;-0.50;99.90
35894;DHT22;21994;48.204;16.516;2022-12-18T11:47:19;-0.60;99.90
35894;DHT22;21994;48.204;16.516;2022-12-18T11:50:01;-0.50;99.90
35894;DHT22;21994;48.204;16.516;2022-12-18T11:52:31;-0.30;99.90
35894;DHT22;21994;48.204;16.516;2022-12-18T11:55:05;-0.30;99.90
35894;DHT22;21994;48.204;16.516;2022-12-18T12:00:25;-0.40;99.90
35894;DHT22;21994;48.204;16.516;2022-12-18T12:03:12;-0.40;99.90
35894;DHT22;21994;48.204;16.516;2022-12-18T12:08:35;-0.60;99.90
35894;DHT22;21994;48.204;16.516;2022-12-18T12:14:49;-0.70;99.90
35894;DHT22;21994;48.204;16.516;2022-12-18T12:17:00;-0.70;99.90
35894;DHT22;21994;48.204;16.516;2022-12-18T12:19:33;-0.70;99.90
35894;DHT22;21994;48.204;16.516;2022-12-18T12:22:22;-0.80;99.90
35894;DHT22;21994;48.204;16.516;2022-12-18T12:27:34;-0.80;99.90
35894;DHT22;21994;48.204;16.516;2022-12-18T12:30:22;-0.80;99.90
35894;DHT22;21994;48.204;16.516;2022-12-18T12:32:57;-0.80;99.90
35894;DHT22;21994;48.204;16.516;2022-12-18T12:38:37;-0.70;99.90
35894;DHT22;21994;48.204;16.516;2022-12-18T12:41:09;-0.70;99.90
35894;DHT22;21994;48.204;16.516;2022-12-18T12:43:58;-0.80;99.90
35894;DHT22;21994;48.204;16.516;2022-12-18T12:46:26;-0.80;99.90
35894;DHT22;21994;48.204;16.516;2022-12-18T12:48:55;-0.90;99.90
35894;DHT22;21994;48.204;16.516;2022-12-18T12:51:27;-1.00;99.90
35894;DHT22;21994;48.204;16.516;2022-12-18T12:53:56;-1.00;99.90
35894;DHT22;21994;48.204;16.516;2022-12-18T12:56:24;-1.00;99.90
35894;DHT22;21994;48.204;16.516;2022-12-18T12:59:11;-1.00;99.90
35894;DHT22;21994;48.204;16.516;2022-12-18T13:07:15;-0.90;99.90
35894;DHT22;21994;48.204;16.516;2022-12-18T13:13:00;-1.00;99.90
35894;DHT22;21994;48.204;16.516;2022-12-18T13:15:30;-1.00;99.90
35894;DHT22;21994;48.204;16.516;2022-12-18T13:20:33;-1.00;99.90
35894;DHT22;21994;48.204;16.516;2022-12-18T13:23:19;-1.00;99.90
35894;DHT22;21994;48.204;16.516;2022-12-18T13:25:47;-1.10;99.90
35894;DHT22;21994;48.204;16.516;2022-12-18T13:28:18;-1.10;99.90
35894;DHT22;21994;48.204;16.516;2022-12-18T13:30:58;-1.10;99.90
35894;DHT22;21994;48.204;16.516;2022-12-18T13:33:40;-1.10;99.90
35894;DHT22;21994;48.204;16.516;2022-12-18T13:39:08;-1.00;99.90
35894;DHT22;21994;48.204;16.516;2022-12-18T13:41:40;-1.10;99.90
35894;DHT22;21994;48.204;16.516;2022-12-18T13:44:41;-1.10;99.90
35894;DHT22;21994;48.204;16.516;2022-12-18T13:46:58;-1.20;99.90
35894;DHT22;21994;48.204;16.516;2022-12-18T13:49:32;-1.20;99.90
35894;DHT22;21994;48.204;16.516;2022-12-18T13:52:15;-1.10;99.90
35894;DHT22;21994;48.204;16.516;2022-12-18T13:54:53;-1.20;99.90
35894;DHT22;21994;48.204;16.516;2022-12-18T13:57:30;-1.20;99.90
35894;DHT22;21994;48.204;16.516;2022-12-18T13:59:58;-1.20;99.90
35894;DHT22;21994;48.204;16.516;2022-12-18T14:02:51;-1.20;99.90
35894;DHT22;21994;48.204;16.516;2022-12-18T14:05:23;-1.20;99.90
35894;DHT22;21994;48.204;16.516;2022-12-18T14:07:49;-1.30;99.90
35894;DHT22;21994;48.204;16.516;2022-12-18T14:10:15;-1.30;99.90
35894;DHT22;21994;48.204;16.516;2022-12-18T14:12:44;-1.30;99.90
35894;DHT22;21994;48.204;16.516;2022-12-18T14:18:00;-1.30;99.90
35894;DHT22;21994;48.204;16.516;2022-12-18T14:20:29;-1.30;99.90
35894;DHT22;21994;48.204;16.516;2022-12-18T14:22:57;-1.30;99.90
35894;DHT22;21994;48.204;16.516;2022-12-18T14:25:27;-1.30;99.90
35894;DHT22;21994;48.204;16.516;2022-12-18T14:30:37;-1.30;99.90
35894;DHT22;21994;48.204;16.516;2022-12-18T14:35:39;-1.30;99.90
35894;DHT22;21994;48.204;16.516;2022-12-18T14:38:10;-1.30;99.90
35894;DHT22;21994;48.204;16.516;2022-12-18T14:40:51;-1.30;99.90
35894;DHT22;21994;48.204;16.516;2022-12-18T14:43:21;-1.30;99.90
35894;DHT22;21994;48.204;16.516;2022-12-18T14:45:47;-1.30;99.90
35894;DHT22;21994;48.204;16.516;2022-12-18T14:51:06;-1.30;99.90
35894;DHT22;21994;48.204;16.516;2022-12-18T14:53:44;-1.30;99.90
35894;DHT22;21994;48.204;16.516;2022-12-18T14:56:21;-1.30;99.90
35894;DHT22;21994;48.204;16.516;2022-12-18T14:58:49;-1.40;99.90
35894;DHT22;21994;48.204;16.516;2022-12-18T15:01:30;-1.40;99.90
35894;DHT22;21994;48.204;16.516;2022-12-18T15:03:59;-1.40;99.90
35894;DHT22;21994;48.204;16.516;2022-12-18T15:06:27;-1.40;99.90
35894;DHT22;21994;48.204;16.516;2022-12-18T15:08:53;-1.40;99.90
35894;DHT22;21994;48.204;16.516;2022-12-18T15:13:51;-1.30;99.90
35894;DHT22;21994;48.204;16.516;2022-12-18T15:16:16;-1.30;99.90
35894;DHT22;21994;48.204;16.516;2022-12-18T15:18:42;-1.30;99.90
35894;DHT22;21994;48.204;16.516;2022-12-18T15:21:10;-1.30;99.90
35894;DHT22;21994;48.204;16.516;2022-12-18T15:26:08;-1.30;99.90
35894;DHT22;21994;48.204;16.516;2022-12-18T15:28:59;-1.30;99.90
35894;DHT22;21994;48.204;16.516;2022-12-18T15:31:32;-1.30;99.90
35894;DHT22;21994;48.204;16.516;2022-12-18T15:36:33;-1.30;99.90
35894;DHT22;21994;48.204;16.516;2022-12-18T15:39:02;-1.30;99.90
35894;DHT22;21994;48.204;16.516;2022-12-18T15:41:30;-1.20;99.90
35894;DHT22;21994;48.204;16.516;2022-12-18T15:43:57;-1.20;99.90
35894;DHT22;21994;48.204;16.516;2022-12-18T15:46:24;-1.10;99.90
35894;DHT22;21994;48.204;16.516;2022-12-18T15:48:55;-1.10;99.90
35894;DHT22;21994;48.204;16.516;2022-12-18T15:51:26;-1.10;99.90
35894;DHT22;21994;48.204;16.516;2022-12-18T15:53:54;-1.20;99.90
35894;DHT22;21994;48.204;16.516;2022-12-18T15:56:21;-1.20;99.90
35894;DHT22;21994;48.204;16.516;2022-12-18T15:59:09;-1.20;99.90
35894;DHT22;21994;48.204;16.516;2022-12-18T16:01:37;-1.20;99.90
35894;DHT22;21994;48.204;16.516;2022-12-18T16:04:03;-1.10;99.90
35894;DHT22;21994;48.204;16.516;2022-12-18T16:06:29;-1.10;99.90
35894;DHT22;21994;48.204;16.516;2022-12-18T16:08:54;-1.10;99.90
35894;DHT22;21994;48.204;16.516;2022-12-18T16:16:37;-1.00;99.90
35894;DHT22;21994;48.204;16.516;2022-12-18T16:19:03;-1.10;99.90
35894;DHT22;21994;48.204;16.516;2022-12-18T16:21:28;-1.10;99.90
35894;DHT22;21994;48.204;16.516;2022-12-18T16:23:54;-0.90;99.90
35894;DHT22;21994;48.204;16.516;2022-12-18T16:26:20;-0.90;99.90
35894;DHT22;21994;48.204;16.516;2022-12-18T16:28:46;-1.00;99.90
35894;DHT22;21994;48.204;16.516;2022-12-18T16:31:11;-0.90;99.90
35894;DHT22;21994;48.204;16.516;2022-12-18T16:33:37;-0.80;99.90
35894;DHT22;21994;48.204;16.516;2022-12-18T16:36:03;-0.90;99.90
35894;DHT22;21994;48.204;16.516;2022-12-18T16:38:30;-0.90;99.90
35894;DHT22;21994;48.204;16.516;2022-12-18T16:40:56;-0.90;99.90
35894;DHT22;21994;48.204;16.516;2022-12-18T16:43:40;-0.90;99.90
35894;DHT22;21994;48.204;16.516;2022-12-18T16:46:09;-0.90;99.90
35894;DHT22;21994;48.204;16.516;2022-12-18T16:48:34;-0.90;99.90
35894;DHT22;21994;48.204;16.516;2022-12-18T16:51:01;-0.90;99.90
35894;DHT22;21994;48.204;16.516;2022-12-18T16:53:28;-0.80;99.90
35894;DHT22;21994;48.204;16.516;2022-12-18T16:55:57;-0.90;99.90
35894;DHT22;21994;48.204;16.516;2022-12-18T16:58:22;-0.90;99.90
35894;DHT22;21994;48.204;16.516;2022-12-18T17:00:48;-0.80;99.90
35894;DHT22;21994;48.204;16.516;2022-12-18T17:03:16;-0.80;99.90
35894;DHT22;21994;48.204;16.516;2022-12-18T17:05:42;-0.80;99.90
35894;DHT22;21994;48.204;16.516;2022-12-18T17:08:08;-0.90;99.90